Time;durP1;ratioP1;P1;durP2;ratioP2;P2;SDS_P1;SDS_P2;PMS_P1;PMS_P2;Temp;Humidity;BMP_temperature;BMP_pressure;BME280_temperature;BME280_humidity;BME280_pressure;Samples;Min_cycle;Max_cycle;Signal;HPM_P1;HPM_P2
2023/10/04 00:00:19;;;;;;;0.75;0.30;;;12.10;99.90;;;;;;4985625;28;20034;-89
2023/10/04 00:02:52;;;;;;;1.58;0.38;;;12.10;99.90;;;;;;4975684;28;20077;-88
2023/10/04 00:05:24;;;;;;;3.67;0.40;;;12.20;99.90;;;;;;4986256;28;20057;-90
2023/10/04 00:07:52;;;;;;;1.70;0.40;;;12.20;99.90;;;;;;4952778;28;20515;-90
2023/10/04 00:10:21;;;;;;;3.85;0.40;;;12.10;99.90;;;;;;4971320;28;20022;-90
2023/10/04 00:12:47;;;;;;;5.50;0.60;;;12.20;99.90;;;;;;4960720;28;20632;-89
2023/10/04 00:15:13;;;;;;;3.10;0.70;;;12.20;99.90;;;;;;4973260;28;20406;-91
2023/10/04 00:17:41;;;;;;;4.45;0.55;;;12.30;99.90;;;;;;4959389;28;20042;-89
2023/10/04 00:20:10;;;;;;;3.90;0.60;;;12.30;99.90;;;;;;4956519;28;20037;-91
2023/10/04 00:22:38;;;;;;;5.03;0.70;;;12.20;99.90;;;;;;4976940;28;20458;-90
2023/10/04 00:25:09;;;;;;;3.72;0.60;;;12.30;99.90;;;;;;4992149;28;20034;-91
2023/10/04 00:27:35;;;;;;;3.22;0.75;;;12.30;99.90;;;;;;4958692;28;20399;-90
2023/10/04 00:30:01;;;;;;;3.22;0.80;;;12.30;99.90;;;;;;4961355;28;20513;-90
2023/10/04 00:32:27;;;;;;;7.35;0.88;;;12.40;99.90;;;;;;4990527;28;20027;-88
2023/10/04 00:34:54;;;;;;;4.85;0.73;;;12.40;99.90;;;;;;4989898;28;20044;-89
2023/10/04 00:37:20;;;;;;;4.63;1.10;;;12.40;99.90;;;;;;4972886;28;20034;-91
2023/10/04 00:39:45;;;;;;;3.83;0.80;;;12.40;99.90;;;;;;4974079;28;20045;-90
2023/10/04 00:42:12;;;;;;;2.83;0.70;;;12.30;99.90;;;;;;4958421;28;20044;-90
2023/10/04 00:44:38;;;;;;;4.60;0.70;;;12.40;99.90;;;;;;4959190;28;20026;-90
2023/10/04 00:47:05;;;;;;;4.20;0.75;;;12.30;99.90;;;;;;4959592;28;20585;-90
2023/10/04 00:49:33;;;;;;;2.00;0.60;;;12.30;99.90;;;;;;4954985;28;20049;-90
2023/10/04 00:52:02;;;;;;;2.88;0.50;;;12.30;99.90;;;;;;4966053;28;20061;-89
2023/10/04 00:54:29;;;;;;;3.08;0.73;;;12.30;99.90;;;;;;4988459;28;20041;-88
2023/10/04 00:56:56;;;;;;;2.72;0.50;;;12.20;99.90;;;;;;4958326;28;20144;-90
2023/10/04 00:59:21;;;;;;;2.08;0.40;;;12.20;99.90;;;;;;4972477;28;20049;-88
2023/10/04 01:01:48;;;;;;;1.95;0.68;;;12.20;99.90;;;;;;4955220;28;20483;-90
2023/10/04 01:04:14;;;;;;;3.08;0.40;;;12.10;99.90;;;;;;4953371;28;20030;-89
2023/10/04 01:06:41;;;;;;;2.28;0.45;;;12.20;99.90;;;;;;4956244;28;20065;-89
2023/10/04 01:09:08;;;;;;;2.15;0.40;;;12.20;99.90;;;;;;4989360;28;20026;-88
2023/10/04 01:11:35;;;;;;;4.13;0.73;;;12.20;99.90;;;;;;4990651;28;20475;-90
2023/10/04 01:14:17;;;;;;;5.10;0.57;;;12.30;99.90;;;;;;4974694;28;20041;-89
2023/10/04 01:16:43;;;;;;;3.40;0.70;;;12.20;99.90;;;;;;4969879;28;20140;-90
2023/10/04 01:19:14;;;;;;;3.40;0.73;;;12.30;99.90;;;;;;4957777;28;20463;-89
2023/10/04 01:21:40;;;;;;;4.50;0.63;;;12.40;99.90;;;;;;4960190;28;20095;-89
2023/10/04 01:24:09;;;;;;;1.75;0.40;;;12.30;99.90;;;;;;4973168;28;20378;-90
2023/10/04 01:26:36;;;;;;;3.05;0.60;;;12.30;99.90;;;;;;4969072;28;20042;-89
2023/10/04 01:29:08;;;;;;;3.17;0.40;;;12.30;99.90;;;;;;4974099;28;20038;-88
2023/10/04 01:31:35;;;;;;;2.58;0.50;;;12.30;99.90;;;;;;4971605;28;20054;-91
2023/10/04 01:34:03;;;;;;;4.95;0.80;;;12.40;99.90;;;;;;4958336;28;20121;-89
2023/10/04 01:36:31;;;;;;;3.13;0.50;;;12.40;99.90;;;;;;4952203;28;20039;-91
2023/10/04 01:38:57;;;;;;;3.15;0.50;;;12.40;99.90;;;;;;4963273;28;20026;-90
2023/10/04 01:41:25;;;;;;;4.07;0.60;;;12.40;99.90;;;;;;4957882;28;20105;-91
2023/10/04 01:43:53;;;;;;;9.18;1.05;;;12.50;99.90;;;;;;4970039;28;20467;-90
2023/10/04 01:46:19;;;;;;;5.85;0.60;;;12.50;99.90;;;;;;4958225;28;20483;-91
2023/10/04 01:48:45;;;;;;;5.03;0.50;;;12.50;99.90;;;;;;4961169;28;20034;-89
2023/10/04 01:51:12;;;;;;;4.78;0.77;;;12.40;99.90;;;;;;4972930;28;20122;-89
2023/10/04 01:53:42;;;;;;;7.03;0.63;;;12.50;99.90;;;;;;4958626;28;20081;-90
2023/10/04 01:56:08;;;;;;;3.42;0.80;;;12.40;99.90;;;;;;4947626;28;20042;-90
2023/10/04 01:58:34;;;;;;;4.63;0.82;;;12.40;99.90;;;;;;4956074;28;20077;-89
2023/10/04 02:01:03;;;;;;;4.40;0.43;;;12.50;99.90;;;;;;4987496;28;20078;-92
2023/10/04 02:03:29;;;;;;;2.13;0.40;;;12.40;99.90;;;;;;4957730;28;20065;-90
2023/10/04 02:05:58;;;;;;;7.20;0.55;;;12.40;99.90;;;;;;4957598;28;20069;-91
2023/10/04 02:08:24;;;;;;;3.58;0.50;;;12.40;99.90;;;;;;4956975;28;20399;-93
2023/10/04 02:10:52;;;;;;;3.05;0.50;;;12.40;99.90;;;;;;4988835;28;20058;-90
2023/10/04 02:13:21;;;;;;;4.32;0.50;;;12.50;99.90;;;;;;4957312;28;20034;-89
2023/10/04 02:15:48;;;;;;;6.67;0.60;;;12.50;99.90;;;;;;4948029;28;20053;-91
2023/10/04 02:18:15;;;;;;;5.80;0.90;;;12.50;99.90;;;;;;4954554;28;20022;-90
2023/10/04 02:20:53;;;;;;;4.40;0.60;;;12.60;99.90;;;;;;4967205;28;20404;-90
2023/10/04 02:23:19;;;;;;;4.03;0.47;;;12.60;99.90;;;;;;4970503;28;20025;-92
2023/10/04 02:25:45;;;;;;;3.05;0.52;;;12.50;99.90;;;;;;4955518;28;20058;-93
2023/10/04 02:28:18;;;;;;;6.50;1.02;;;12.60;99.90;;;;;;4957551;28;20342;-93
2023/10/04 02:30:47;;;;;;;4.85;0.70;;;12.60;99.90;;;;;;4970600;28;20085;-90
2023/10/04 02:33:16;;;;;;;3.37;0.60;;;12.60;99.90;;;;;;4955722;28;20041;-90
2023/10/04 02:35:44;;;;;;;2.65;0.50;;;12.60;99.90;;;;;;4952001;28;20042;-89
2023/10/04 02:38:19;;;;;;;5.53;0.82;;;12.50;99.90;;;;;;4959709;28;20694;-88
2023/10/04 02:40:52;;;;;;;1.67;0.45;;;12.60;99.90;;;;;;4967322;28;20031;-90
2023/10/04 02:43:27;;;;;;;4.13;0.40;;;12.50;99.90;;;;;;4950697;28;20026;-90
2023/10/04 02:45:57;;;;;;;1.17;0.30;;;12.50;99.90;;;;;;4957876;28;20030;-91
2023/10/04 02:48:25;;;;;;;1.52;0.28;;;12.50;99.90;;;;;;4960181;28;20133;-90
2023/10/04 02:50:55;;;;;;;3.35;0.30;;;12.50;99.90;;;;;;4956617;28;20170;-90
2023/10/04 02:53:24;;;;;;;2.03;0.35;;;12.50;99.90;;;;;;4975504;28;20511;-90
2023/10/04 02:55:54;;;;;;;3.13;0.40;;;12.50;99.90;;;;;;4957164;28;20050;-91
2023/10/04 02:58:21;;;;;;;2.58;0.40;;;12.50;99.90;;;;;;4972679;28;20031;-90
2023/10/04 03:00:50;;;;;;;4.47;0.40;;;12.50;99.90;;;;;;4955163;28;20027;-91
2023/10/04 03:03:24;;;;;;;3.15;0.63;;;12.50;99.90;;;;;;4990812;28;20070;-90
2023/10/04 03:05:55;;;;;;;3.42;0.50;;;12.50;99.90;;;;;;4991815;28;20121;-90
2023/10/04 03:08:23;;;;;;;2.20;0.30;;;12.50;99.90;;;;;;4976260;28;20030;-90
2023/10/04 03:10:50;;;;;;;2.13;0.60;;;12.50;99.90;;;;;;4960816;28;20026;-91
2023/10/04 03:13:24;;;;;;;2.10;0.50;;;12.50;99.90;;;;;;4970278;28;20021;-90
2023/10/04 03:15:53;;;;;;;5.53;0.50;;;12.50;99.90;;;;;;4961297;28;20050;-90
2023/10/04 03:18:19;;;;;;;2.38;0.50;;;12.50;99.90;;;;;;4959915;28;20352;-90
2023/10/04 03:20:54;;;;;;;6.35;1.15;;;12.50;99.90;;;;;;4956667;28;20114;-89
2023/10/04 03:23:23;;;;;;;4.40;0.93;;;12.50;99.90;;;;;;4991222;28;20026;-92
2023/10/04 03:25:52;;;;;;;6.67;0.83;;;12.50;99.90;;;;;;4960860;28;20026;-92
2023/10/04 03:28:20;;;;;;;5.55;0.90;;;12.50;99.90;;;;;;4961032;28;20317;-90
2023/10/04 03:30:46;;;;;;;4.78;0.57;;;12.50;99.90;;;;;;4959327;28;20030;-92
2023/10/04 03:33:13;;;;;;;4.40;0.60;;;12.50;99.90;;;;;;4965973;28;20031;-93
2023/10/04 03:35:43;;;;;;;4.55;0.70;;;12.50;99.90;;;;;;4992317;28;20034;-91
2023/10/04 03:38:11;;;;;;;3.83;0.50;;;12.60;99.90;;;;;;4957200;28;20497;-90
2023/10/04 03:40:39;;;;;;;3.40;0.80;;;12.50;99.90;;;;;;4952970;28;20027;-89
2023/10/04 03:43:09;;;;;;;6.07;0.77;;;12.50;99.90;;;;;;4960245;28;20161;-90
2023/10/04 03:45:40;;;;;;;2.58;0.60;;;12.40;99.90;;;;;;4983046;28;20037;-88
2023/10/04 03:48:15;;;;;;;5.05;0.70;;;12.40;99.90;;;;;;4963098;28;20030;-91
2023/10/04 03:50:45;;;;;;;2.40;0.40;;;12.30;99.90;;;;;;4982239;28;20019;-89
2023/10/04 03:53:12;;;;;;;4.65;0.70;;;12.30;99.90;;;;;;4989612;28;20070;-90
2023/10/04 03:55:39;;;;;;;4.45;0.50;;;12.30;99.90;;;;;;4974612;28;20065;-88
2023/10/04 03:58:07;;;;;;;3.15;0.50;;;12.30;99.90;;;;;;4959034;28;20671;-88
2023/10/04 04:00:34;;;;;;;2.33;0.40;;;12.20;99.90;;;;;;4959825;28;20036;-90
2023/10/04 04:03:00;;;;;;;3.88;0.40;;;12.20;99.90;;;;;;4960294;28;20078;-89
2023/10/04 04:05:26;;;;;;;3.83;0.43;;;12.10;99.90;;;;;;4973913;28;20031;-89
2023/10/04 04:07:52;;;;;;;5.68;0.80;;;12.00;99.90;;;;;;4976442;28;20034;-90
2023/10/04 04:10:19;;;;;;;4.47;0.60;;;12.10;99.90;;;;;;4989047;28;20050;-89
2023/10/04 04:12:46;;;;;;;5.95;0.50;;;12.10;99.90;;;;;;4969337;28;20038;-90
2023/10/04 04:15:14;;;;;;;3.78;0.45;;;12.00;99.90;;;;;;4963121;28;20065;-89
2023/10/04 04:17:41;;;;;;;2.90;0.32;;;12.00;99.90;;;;;;4953050;28;20041;-89
2023/10/04 04:22:53;;;;;;;2.33;0.35;;;11.90;99.90;;;;;;4974210;28;20050;-90
2023/10/04 04:25:24;;;;;;;2.45;0.40;;;11.90;99.90;;;;;;4968582;28;20027;-90
2023/10/04 04:27:52;;;;;;;4.57;0.40;;;11.90;99.90;;;;;;4960317;28;20037;-91
2023/10/04 04:30:23;;;;;;;2.35;0.30;;;11.90;99.90;;;;;;4957348;28;20030;-89
2023/10/04 04:32:53;;;;;;;4.35;0.60;;;11.80;99.90;;;;;;4952616;28;20034;-90
2023/10/04 04:38:27;;;;;;;3.05;0.40;;;11.70;99.90;;;;;;4989475;28;20030;-89
2023/10/04 04:40:56;;;;;;;10.50;0.63;;;11.80;99.90;;;;;;4989636;28;20038;-90
2023/10/04 04:43:36;;;;;;;1.42;0.30;;;11.80;99.90;;;;;;4961264;28;20491;-89
2023/10/04 04:46:12;;;;;;;2.38;0.30;;;11.70;99.90;;;;;;4954795;28;20033;-88
2023/10/04 04:48:38;;;;;;;1.92;0.30;;;11.80;99.90;;;;;;4959402;28;20058;-88
2023/10/04 04:51:15;;;;;;;1.20;0.30;;;11.70;99.90;;;;;;4968158;28;20384;-90
2023/10/04 04:53:56;;;;;;;2.78;0.30;;;11.60;99.90;;;;;;4972792;28;20030;-88
2023/10/04 04:56:27;;;;;;;1.15;0.25;;;11.60;99.90;;;;;;4962682;28;20034;-89
2023/10/04 04:58:56;;;;;;;2.10;0.30;;;11.60;99.90;;;;;;4954190;28;20022;-88
2023/10/04 05:01:24;;;;;;;2.22;0.30;;;11.60;99.90;;;;;;4970115;28;20080;-88
2023/10/04 05:03:51;;;;;;;1.00;0.30;;;11.60;99.90;;;;;;4965514;28;20026;-88
2023/10/04 05:06:24;;;;;;;1.15;0.30;;;11.50;99.90;;;;;;4965979;28;20034;-88
2023/10/04 05:08:54;;;;;;;2.15;0.40;;;11.50;99.90;;;;;;4969732;28;20440;-88
2023/10/04 05:11:20;;;;;;;2.72;0.50;;;11.60;99.90;;;;;;4970062;28;20030;-89
2023/10/04 05:13:46;;;;;;;1.98;0.30;;;11.50;99.90;;;;;;4955243;28;20031;-88
2023/10/04 05:16:12;;;;;;;4.90;0.88;;;11.50;99.90;;;;;;4967779;28;20046;-90
2023/10/04 05:18:38;;;;;;;2.15;0.57;;;11.40;99.90;;;;;;4936030;28;20134;-92
2023/10/04 05:21:05;;;;;;;2.63;0.82;;;11.40;99.90;;;;;;4935895;28;20141;-92
2023/10/04 05:23:31;;;;;;;3.55;0.50;;;11.50;99.90;;;;;;4958660;28;20494;-95
2023/10/04 05:25:57;;;;;;;4.18;0.88;;;11.50;99.90;;;;;;4950134;28;20031;-91
2023/10/04 05:28:24;;;;;;;3.05;0.45;;;11.50;99.90;;;;;;4952219;28;20031;-90
2023/10/04 05:30:51;;;;;;;4.45;1.20;;;11.50;99.90;;;;;;4955572;28;20027;-91
2023/10/04 05:33:21;;;;;;;1.58;0.43;;;11.40;99.90;;;;;;4974508;28;20027;-91
2023/10/04 05:35:52;;;;;;;4.35;0.70;;;11.40;99.90;;;;;;4935911;28;20035;-90
2023/10/04 05:38:18;;;;;;;4.25;0.82;;;11.30;99.90;;;;;;4963415;28;20129;-90
2023/10/04 05:40:48;;;;;;;2.45;0.50;;;11.30;99.90;;;;;;4955804;28;20142;-90
2023/10/04 05:43:18;;;;;;;2.03;0.40;;;11.30;99.90;;;;;;4971480;28;20073;-90
2023/10/04 05:45:44;;;;;;;;;;;11.30;99.90;;;;;;4954905;28;20066;-90
2023/10/04 05:48:10;;;;;;;1.65;0.40;;;11.30;99.90;;;;;;4972098;28;19918;-89
2023/10/04 05:50:37;;;;;;;2.42;0.43;;;11.30;99.90;;;;;;4934870;28;20042;-89
2023/10/04 05:53:08;;;;;;;4.07;0.45;;;11.30;99.90;;;;;;4951527;28;20037;-90
2023/10/04 05:55:35;;;;;;;3.55;0.50;;;11.20;99.90;;;;;;4967274;28;20414;-89
2023/10/04 05:58:02;;;;;;;3.67;0.68;;;11.30;99.90;;;;;;4950344;28;20026;-90
2023/10/04 06:00:31;;;;;;;3.15;0.70;;;11.30;99.90;;;;;;4947990;28;20141;-90
2023/10/04 06:03:06;;;;;;;3.50;0.43;;;11.40;99.90;;;;;;4967119;28;20031;-90
2023/10/04 06:05:37;;;;;;;2.13;0.50;;;11.30;99.90;;;;;;4948775;28;20070;-91
2023/10/04 06:08:06;;;;;;;3.63;0.60;;;11.30;99.90;;;;;;4951655;28;20086;-91
2023/10/04 06:10:33;;;;;;;5.63;0.43;;;11.30;99.90;;;;;;4934028;28;20113;-90
2023/10/04 06:12:59;;;;;;;3.17;0.70;;;11.30;99.90;;;;;;4949725;28;20026;-89
2023/10/04 06:15:25;;;;;;;3.40;0.50;;;11.40;99.90;;;;;;4948116;28;20152;-90
2023/10/04 06:17:52;;;;;;;3.30;0.50;;;11.40;99.90;;;;;;4948272;28;20046;-90
2023/10/04 06:20:25;;;;;;;2.25;0.40;;;11.40;99.90;;;;;;4952493;28;20037;-89
2023/10/04 06:22:56;;;;;;;2.50;0.45;;;11.40;99.90;;;;;;4957714;28;20495;-89
2023/10/04 06:25:23;;;;;;;2.80;0.50;;;11.50;99.90;;;;;;4954097;28;20102;-90
2023/10/04 06:27:54;;;;;;;2.13;0.50;;;11.50;99.90;;;;;;4951992;28;20042;-89
2023/10/04 06:30:22;;;;;;;1.52;0.40;;;11.60;99.90;;;;;;4950276;28;20031;-89
2023/10/04 06:32:49;;;;;;;4.53;0.68;;;11.60;99.90;;;;;;4953311;28;20125;-91
2023/10/04 06:35:16;;;;;;;3.75;0.60;;;11.60;99.90;;;;;;4968303;28;20382;-91
2023/10/04 06:37:41;;;;;;;2.28;0.47;;;11.60;99.90;;;;;;4952087;28;20039;-91
2023/10/04 06:40:15;;;;;;;1.92;0.50;;;11.60;99.90;;;;;;4950266;28;20114;-91
2023/10/04 06:42:43;;;;;;;3.67;0.50;;;11.70;99.90;;;;;;4958903;28;20341;-91
2023/10/04 06:45:09;;;;;;;2.28;0.60;;;11.70;99.90;;;;;;4948496;28;20019;-90
2023/10/04 06:47:35;;;;;;;4.13;0.82;;;11.80;99.90;;;;;;4952493;28;20073;-91
2023/10/04 06:50:02;;;;;;;7.28;0.85;;;11.90;99.90;;;;;;4966297;28;20054;-90
2023/10/04 06:52:28;;;;;;;3.40;0.90;;;12.00;99.90;;;;;;4948743;28;20054;-90
2023/10/04 06:54:54;;;;;;;4.20;1.00;;;12.00;99.90;;;;;;4957231;28;20027;-90
2023/10/04 06:57:20;;;;;;;8.07;1.35;;;12.10;99.90;;;;;;4953048;28;20043;-92
2023/10/04 06:59:46;;;;;;;4.07;0.98;;;12.10;99.90;;;;;;4951644;28;20031;-90
2023/10/04 07:02:12;;;;;;;6.43;1.50;;;12.20;99.90;;;;;;4949132;28;20451;-90
2023/10/04 07:04:37;;;;;;;7.07;0.85;;;12.30;99.90;;;;;;4951573;28;20085;-94
2023/10/04 07:07:03;;;;;;;12.55;2.47;;;12.30;99.90;;;;;;4953098;28;20030;-93
2023/10/04 07:09:29;;;;;;;9.45;1.50;;;12.40;99.90;;;;;;4958788;28;20175;-92
2023/10/04 07:11:54;;;;;;;5.22;1.00;;;12.40;99.90;;;;;;4951875;28;20062;-93
2023/10/04 07:14:20;;;;;;;6.40;1.25;;;12.50;99.90;;;;;;4951352;28;20089;-91
2023/10/04 07:16:46;;;;;;;3.85;0.90;;;12.50;99.90;;;;;;4948908;28;20038;-90
2023/10/04 07:19:14;;;;;;;5.65;1.25;;;12.60;99.90;;;;;;4952710;28;20886;-92
2023/10/04 07:21:40;;;;;;;8.18;1.60;;;12.60;99.90;;;;;;4945809;28;20728;-91
2023/10/04 07:24:06;;;;;;;6.00;1.02;;;12.70;99.90;;;;;;4951005;28;20037;-90
2023/10/04 07:26:35;;;;;;;3.13;0.73;;;12.70;99.90;;;;;;4935460;28;20487;-88
2023/10/04 07:29:02;;;;;;;7.93;1.52;;;12.90;99.90;;;;;;4964430;28;20118;-93
2023/10/04 07:31:27;;;;;;;5.25;0.98;;;12.90;99.90;;;;;;4951209;28;20031;-91
2023/10/04 07:33:53;;;;;;;8.82;1.88;;;13.00;99.90;;;;;;4937168;28;20141;-92
2023/10/04 07:36:19;;;;;;;4.50;1.20;;;13.00;99.90;;;;;;4954286;28;20039;-90
2023/10/04 07:38:46;;;;;;;4.72;1.00;;;13.20;99.90;;;;;;4946540;28;20416;-92
2023/10/04 07:41:11;;;;;;;4.30;0.75;;;13.30;99.90;;;;;;4979217;28;20421;-90
2023/10/04 07:43:37;;;;;;;4.13;0.60;;;13.40;99.90;;;;;;4953946;28;20123;-91
2023/10/04 07:46:04;;;;;;;6.28;1.00;;;13.40;99.90;;;;;;4936505;28;20071;-93
2023/10/04 07:48:30;;;;;;;4.45;0.80;;;13.50;99.90;;;;;;4949891;28;20042;-91
2023/10/04 07:50:55;;;;;;;4.13;0.80;;;13.60;99.90;;;;;;4949279;28;20035;-93
2023/10/04 07:53:22;;;;;;;7.25;1.17;;;13.60;99.90;;;;;;4953965;28;20038;-95
2023/10/04 07:55:49;;;;;;;7.53;1.38;;;13.70;99.90;;;;;;4956068;28;20043;-94
2023/10/04 07:58:15;;;;;;;7.70;1.40;;;13.70;99.90;;;;;;4950868;28;20436;-91
2023/10/04 08:00:41;;;;;;;6.50;1.50;;;13.80;99.90;;;;;;4956039;28;20037;-90
2023/10/04 08:03:08;;;;;;;6.93;1.45;;;14.00;99.90;;;;;;4934302;28;20035;-91
2023/10/04 08:05:35;;;;;;;5.65;1.10;;;14.10;99.90;;;;;;4931996;29;20039;-90
2023/10/04 08:08:03;;;;;;;8.65;2.00;;;14.20;99.90;;;;;;4936336;28;20063;-91
2023/10/04 08:10:32;;;;;;;7.45;1.27;;;14.30;99.90;;;;;;4951913;28;20481;-94
2023/10/04 08:13:00;;;;;;;10.88;2.08;;;14.30;99.90;;;;;;4954758;28;20487;-91
2023/10/04 08:15:27;;;;;;;7.60;1.38;;;14.30;99.90;;;;;;4930342;28;20050;-92
2023/10/04 08:17:58;;;;;;;6.75;1.48;;;14.50;99.90;;;;;;4935653;28;20078;-93
2023/10/04 08:20:29;;;;;;;6.60;1.27;;;14.50;99.90;;;;;;4954568;28;20170;-93
2023/10/04 08:22:59;;;;;;;8.02;1.65;;;14.60;99.90;;;;;;4977405;28;20042;-95
2023/10/04 08:25:27;;;;;;;9.68;1.08;;;14.70;99.90;;;;;;4951948;28;20406;-94
2023/10/04 08:27:53;;;;;;;6.53;1.67;;;14.70;99.90;;;;;;4932184;28;20047;-93
2023/10/04 08:30:20;;;;;;;5.43;0.80;;;14.60;99.90;;;;;;4936500;28;20026;-93
2023/10/04 08:32:48;;;;;;;5.30;1.00;;;14.90;99.90;;;;;;4954821;28;20042;-94
2023/10/04 08:35:23;;;;;;;6.85;0.93;;;15.00;99.90;;;;;;4938338;28;20086;-92
2023/10/04 08:37:53;;;;;;;10.27;1.45;;;15.10;99.90;;;;;;4975859;28;20042;-91
2023/10/04 08:40:23;;;;;;;9.48;1.55;;;15.10;99.90;;;;;;4939158;28;20101;-94
2023/10/04 08:42:52;;;;;;;;;;;15.10;99.90;;;;;;4959748;28;20035;-93
2023/10/04 08:45:21;;;;;;;11.73;1.67;;;15.20;99.90;;;;;;4959827;28;19910;-93
2023/10/04 08:47:52;;;;;;;11.02;1.27;;;15.20;99.90;;;;;;4937849;28;20399;-94
2023/10/04 08:50:36;;;;;;;10.55;1.63;;;15.30;99.90;;;;;;4961579;28;20035;-92
2023/10/04 08:53:26;;;;;;;9.02;1.67;;;15.10;99.90;;;;;;4973063;28;20030;-91
2023/10/04 08:55:59;;;;;;;12.65;2.53;;;15.30;99.90;;;;;;4922360;28;20070;-94
2023/10/04 08:58:30;;;;;;;7.15;1.05;;;15.30;99.90;;;;;;4955799;28;20031;-92
2023/10/04 09:00:57;;;;;;;9.40;1.90;;;15.50;99.90;;;;;;4954356;28;20485;-93
2023/10/04 09:03:24;;;;;;;8.30;1.10;;;15.50;99.90;;;;;;4957046;28;20035;-93
2023/10/04 09:05:54;;;;;;;7.22;1.40;;;15.60;99.90;;;;;;4934264;28;20030;-94
2023/10/04 09:08:22;;;;;;;4.95;0.77;;;15.70;99.90;;;;;;4971046;28;20085;-92
2023/10/04 09:10:48;;;;;;;6.47;1.45;;;16.00;99.90;;;;;;4957306;28;20046;-92
2023/10/04 09:13:13;;;;;;;8.00;1.17;;;15.90;99.90;;;;;;4949551;28;20117;-92
2023/10/04 09:15:40;;;;;;;11.32;1.60;;;16.10;99.90;;;;;;4951230;28;20038;-92
2023/10/04 09:18:07;;;;;;;7.55;1.88;;;15.80;99.90;;;;;;4951935;28;20194;-91
2023/10/04 09:20:33;;;;;;;9.00;1.73;;;15.90;99.90;;;;;;4931179;28;20030;-91
2023/10/04 09:23:00;;;;;;;9.07;1.40;;;15.90;99.90;;;;;;4955511;28;20035;-93
2023/10/04 09:25:40;;;;;;;6.43;1.23;;;15.90;99.90;;;;;;4955665;28;20026;-92
2023/10/04 09:28:09;;;;;;;10.18;1.35;;;15.90;99.90;;;;;;4977494;28;20117;-91
2023/10/04 09:30:38;;;;;;;10.53;1.30;;;16.10;99.90;;;;;;4954565;28;20087;-93
2023/10/04 09:33:06;;;;;;;9.50;1.63;;;16.00;99.90;;;;;;4948194;28;20298;-93
2023/10/04 09:35:43;;;;;;;7.70;1.88;;;16.00;99.90;;;;;;4948286;28;20330;-94
2023/10/04 09:38:17;;;;;;;6.85;1.63;;;16.00;99.90;;;;;;4963599;28;20037;-92
2023/10/04 09:40:55;;;;;;;6.28;1.30;;;16.10;99.90;;;;;;4953990;28;20050;-94
2023/10/04 09:43:36;;;;;;;7.38;1.45;;;16.40;99.90;;;;;;4956575;28;20031;-95
2023/10/04 09:46:12;;;;;;;5.75;1.05;;;16.20;99.90;;;;;;4953915;28;20084;-96
2023/10/04 09:48:41;;;;;;;9.05;1.63;;;16.30;99.90;;;;;;4976032;28;20050;-91
2023/10/04 09:51:09;;;;;;;8.95;1.13;;;16.40;99.90;;;;;;4954472;28;20094;-95
2023/10/04 09:53:39;;;;;;;6.70;0.95;;;16.40;99.90;;;;;;4937010;28;20161;-93
2023/10/04 09:56:22;;;;;;;9.50;1.60;;;16.40;99.90;;;;;;4953914;28;20138;-94
2023/10/04 09:58:49;;;;;;;6.90;1.00;;;16.10;99.90;;;;;;4945972;28;20053;-92
2023/10/04 10:01:17;;;;;;;11.30;1.48;;;16.20;99.90;;;;;;4971212;28;20027;-93
2023/10/04 10:04:07;;;;;;;8.25;1.20;;;16.40;99.90;;;;;;4968797;28;20105;-93
2023/10/04 10:06:46;;;;;;;8.07;1.20;;;16.40;99.90;;;;;;4951803;28;20039;-95
2023/10/04 10:09:18;;;;;;;7.15;1.00;;;16.40;99.90;;;;;;4931060;28;20439;-94
2023/10/04 10:11:46;;;;;;;8.20;1.48;;;16.40;99.90;;;;;;4955608;28;20046;-92
2023/10/04 10:14:14;;;;;;;6.95;1.10;;;16.30;99.90;;;;;;4961344;28;20074;-91
2023/10/04 10:16:42;;;;;;;9.23;1.35;;;16.40;99.90;;;;;;4934138;28;20066;-95
2023/10/04 10:19:08;;;;;;;8.90;1.33;;;16.40;99.90;;;;;;4955570;28;20033;-94
2023/10/04 10:22:02;;;;;;;6.22;1.33;;;16.30;99.90;;;;;;4952786;28;20059;-90
2023/10/04 10:24:28;;;;;;;7.78;1.38;;;16.40;99.90;;;;;;4937332;28;20030;-92
2023/10/04 10:27:07;;;;;;;5.50;1.20;;;16.30;99.90;;;;;;4949243;28;20030;-92
2023/10/04 10:29:36;;;;;;;7.85;1.55;;;16.50;99.90;;;;;;4961420;28;20125;-93
2023/10/04 10:32:09;;;;;;;8.38;1.35;;;16.40;99.90;;;;;;4967678;28;20510;-91
2023/10/04 10:34:34;;;;;;;6.10;0.90;;;16.60;99.90;;;;;;4962602;28;20038;-92
2023/10/04 10:37:15;;;;;;;7.82;1.25;;;16.70;99.90;;;;;;4935484;28;20038;-91
2023/10/04 10:39:50;;;;;;;4.50;0.80;;;16.50;99.90;;;;;;4976209;28;20126;-91
2023/10/04 10:42:16;;;;;;;5.25;0.90;;;16.70;99.90;;;;;;4956721;28;20086;-91
2023/10/04 10:44:43;;;;;;;5.53;0.90;;;16.70;99.90;;;;;;4929645;28;20035;-92
2023/10/04 10:47:23;;;;;;;10.68;1.33;;;16.60;99.90;;;;;;4936767;28;20033;-90
2023/10/04 10:49:52;;;;;;;;;;;16.50;99.90;;;;;;4952040;28;20019;-90
2023/10/04 10:52:27;;;;;;;;;;;16.70;99.90;;;;;;4959837;28;19918;-93
2023/10/04 10:54:58;;;;;;;7.55;1.00;;;16.80;99.90;;;;;;4933005;28;19914;-92
2023/10/04 10:57:27;;;;;;;6.13;1.00;;;16.90;99.90;;;;;;4960533;28;20042;-93
2023/10/04 10:59:55;;;;;;;;;;;16.90;99.90;;;;;;4950507;28;20099;-92
2023/10/04 11:02:23;;;;;;;8.48;1.40;;;17.30;99.90;;;;;;4962074;28;19914;-92
2023/10/04 11:04:50;;;;;;;6.45;1.00;;;17.30;99.90;;;;;;4952221;28;20369;-91
2023/10/04 11:07:17;;;;;;;9.13;1.23;;;17.30;99.90;;;;;;4952156;28;20031;-92
2023/10/04 11:09:48;;;;;;;7.05;1.02;;;17.40;99.90;;;;;;4953975;28;20475;-93
2023/10/04 11:12:18;;;;;;;6.57;1.60;;;17.20;99.90;;;;;;4953223;28;20035;-91
2023/10/04 11:14:45;;;;;;;5.45;1.20;;;17.00;99.90;;;;;;4973718;28;20023;-92
2023/10/04 11:17:10;;;;;;;7.43;1.65;;;16.80;99.90;;;;;;4938666;28;20425;-91
2023/10/04 11:19:36;;;;;;;5.20;0.80;;;17.00;99.90;;;;;;4958710;28;20023;-91
2023/10/04 11:22:03;;;;;;;8.73;1.38;;;17.10;99.90;;;;;;4956387;28;20047;-92
2023/10/04 11:24:30;;;;;;;10.63;1.83;;;16.90;99.90;;;;;;4960902;28;20137;-92
2023/10/04 11:26:58;;;;;;;5.15;1.00;;;17.00;99.90;;;;;;4956095;28;20108;-91
2023/10/04 11:29:26;;;;;;;11.13;1.52;;;17.00;99.90;;;;;;4956232;28;20023;-91
2023/10/04 11:31:53;;;;;;;7.93;1.88;;;17.00;99.90;;;;;;4936712;28;20046;-90
2023/10/04 11:34:19;;;;;;;6.60;1.20;;;16.90;99.90;;;;;;4951777;28;20023;-94
2023/10/04 11:36:47;;;;;;;8.77;1.50;;;17.00;99.90;;;;;;4937817;28;20042;-91
2023/10/04 11:39:18;;;;;;;9.75;1.55;;;16.80;99.90;;;;;;4959789;28;20035;-91
2023/10/04 11:41:50;;;;;;;12.45;2.00;;;17.00;99.90;;;;;;4955034;28;20030;-91
2023/10/04 11:44:18;;;;;;;6.20;0.88;;;17.00;99.90;;;;;;4952796;28;20027;-92
2023/10/04 11:46:58;;;;;;;4.93;1.15;;;17.20;99.90;;;;;;4937635;28;20109;-90
2023/10/04 11:49:23;;;;;;;4.95;0.98;;;17.20;99.90;;;;;;4963116;28;20031;-88
2023/10/04 11:51:53;;;;;;;4.90;1.00;;;17.40;99.90;;;;;;4957095;28;20506;-93
2023/10/04 11:54:19;;;;;;;6.40;1.58;;;17.50;99.90;;;;;;4939261;28;20057;-92
2023/10/04 11:56:45;;;;;;;6.22;1.73;;;17.10;99.90;;;;;;4935824;28;20523;-92
2023/10/04 11:59:13;;;;;;;5.63;1.20;;;17.60;99.90;;;;;;4938807;28;20489;-91
2023/10/04 12:01:44;;;;;;;6.22;1.38;;;17.70;99.90;;;;;;4956609;28;20031;-91
2023/10/04 12:04:14;;;;;;;5.80;1.45;;;17.90;99.90;;;;;;4956620;28;20113;-92
2023/10/04 12:06:41;;;;;;;7.47;1.50;;;17.40;99.90;;;;;;4951858;28;20042;-91
2023/10/04 12:09:08;;;;;;;4.95;1.00;;;17.80;99.90;;;;;;4935831;28;20042;-91
2023/10/04 12:11:38;;;;;;;5.72;1.40;;;17.90;99.90;;;;;;4955018;28;20027;-94
2023/10/04 12:14:09;;;;;;;6.72;1.88;;;17.80;99.90;;;;;;4957184;28;20049;-93
2023/10/04 12:16:38;;;;;;;6.68;1.65;;;17.60;99.90;;;;;;4954610;28;20057;-90
2023/10/04 12:19:04;;;;;;;7.60;1.60;;;17.50;99.90;;;;;;4975869;28;20071;-92
2023/10/04 12:21:31;;;;;;;6.03;1.23;;;17.40;99.90;;;;;;4935663;28;20050;-90
2023/10/04 12:23:57;;;;;;;6.82;1.42;;;17.40;99.90;;;;;;4935695;28;20033;-91
2023/10/04 12:26:27;;;;;;;5.43;1.20;;;17.40;99.90;;;;;;4933345;28;20038;-90
2023/10/04 12:28:53;;;;;;;5.63;1.38;;;17.60;99.90;;;;;;4934907;28;20381;-91
2023/10/04 12:31:19;;;;;;;8.82;2.38;;;17.50;99.90;;;;;;4952824;28;20498;-92
2023/10/04 12:33:46;;;;;;;7.68;1.90;;;17.40;99.90;;;;;;4949209;28;20575;-91
2023/10/04 12:36:12;;;;;;;6.22;1.70;;;17.30;99.90;;;;;;4952402;28;20086;-91
2023/10/04 12:38:37;;;;;;;7.07;1.45;;;17.20;99.90;;;;;;4934826;28;20118;-91
2023/10/04 12:41:03;;;;;;;6.47;1.50;;;17.40;99.90;;;;;;4933123;28;20027;-89
2023/10/04 12:43:29;;;;;;;3.70;1.30;;;17.50;99.90;;;;;;4948433;28;20030;-92
2023/10/04 12:45:55;;;;;;;5.03;1.33;;;17.40;99.90;;;;;;4934811;28;20027;-91
2023/10/04 12:48:21;;;;;;;6.40;1.50;;;17.20;99.90;;;;;;4953286;28;20498;-93
2023/10/04 12:50:47;;;;;;;6.03;1.48;;;17.00;99.90;;;;;;4946196;28;20051;-90
2023/10/04 12:53:14;;;;;;;6.32;1.63;;;17.00;99.90;;;;;;4927316;28;20062;-91
2023/10/04 12:55:47;;;;;;;8.35;2.30;;;17.10;99.90;;;;;;4932139;28;20039;-90
2023/10/04 12:58:14;;;;;;;9.05;2.05;;;17.00;99.90;;;;;;4951780;28;20081;-91
2023/10/04 13:00:43;;;;;;;6.90;2.05;;;17.00;99.90;;;;;;4942625;28;20030;-89